sensor_id;sensor_type;location;lat;lon;timestamp;P1;durP1;ratioP1;P2;durP2;ratioP2
22650;SDS011;11492;42.646;23.400;2022-11-24T00:00:23;20.55;;;5.68;;
22650;SDS011;11492;42.646;23.400;2022-11-24T00:02:48;12.18;;;4.95;;
22650;SDS011;11492;42.646;23.400;2022-11-24T00:05:14;13.63;;;5.35;;
22650;SDS011;11492;42.646;23.400;2022-11-24T00:07:39;13.85;;;5.57;;
22650;SDS011;11492;42.646;23.400;2022-11-24T00:10:05;13.27;;;5.47;;
22650;SDS011;11492;42.646;23.400;2022-11-24T00:12:30;19.35;;;5.55;;
22650;SDS011;11492;42.646;23.400;2022-11-24T00:14:56;14.40;;;5.55;;
22650;SDS011;11492;42.646;23.400;2022-11-24T00:17:21;10.02;;;5.15;;
22650;SDS011;11492;42.646;23.400;2022-11-24T00:19:46;20.20;;;6.00;;
22650;SDS011;11492;42.646;23.400;2022-11-24T00:22:12;21.35;;;6.15;;
22650;SDS011;11492;42.646;23.400;2022-11-24T00:24:37;16.63;;;5.78;;
22650;SDS011;11492;42.646;23.400;2022-11-24T00:27:03;12.32;;;5.47;;
22650;SDS011;11492;42.646;23.400;2022-11-24T00:29:28;13.57;;;5.97;;
22650;SDS011;11492;42.646;23.400;2022-11-24T00:31:55;13.90;;;5.80;;
22650;SDS011;11492;42.646;23.400;2022-11-24T00:34:20;19.33;;;6.65;;
22650;SDS011;11492;42.646;23.400;2022-11-24T00:36:46;12.52;;;6.78;;
22650;SDS011;11492;42.646;23.400;2022-11-24T00:39:12;14.70;;;6.80;;
22650;SDS011;11492;42.646;23.400;2022-11-24T00:41:38;17.20;;;6.30;;
22650;SDS011;11492;42.646;23.400;2022-11-24T00:44:04;18.88;;;6.22;;
22650;SDS011;11492;42.646;23.400;2022-11-24T00:46:30;15.65;;;6.47;;
22650;SDS011;11492;42.646;23.400;2022-11-24T00:48:55;11.38;;;6.40;;
22650;SDS011;11492;42.646;23.400;2022-11-24T00:51:22;11.52;;;5.88;;
22650;SDS011;11492;42.646;23.400;2022-11-24T00:53:54;19.70;;;6.55;;
22650;SDS011;11492;42.646;23.400;2022-11-24T00:56:20;17.55;;;6.07;;
22650;SDS011;11492;42.646;23.400;2022-11-24T00:58:46;15.23;;;6.05;;
22650;SDS011;11492;42.646;23.400;2022-11-24T01:01:13;12.82;;;6.15;;
22650;SDS011;11492;42.646;23.400;2022-11-24T01:03:40;10.98;;;5.45;;
22650;SDS011;11492;42.646;23.400;2022-11-24T01:06:12;14.95;;;6.22;;
22650;SDS011;11492;42.646;23.400;2022-11-24T01:08:43;14.60;;;6.07;;
22650;SDS011;11492;42.646;23.400;2022-11-24T01:11:18;15.02;;;5.63;;
22650;SDS011;11492;42.646;23.400;2022-11-24T01:13:47;15.73;;;5.78;;
22650;SDS011;11492;42.646;23.400;2022-11-24T01:16:15;12.30;;;5.15;;
22650;SDS011;11492;42.646;23.400;2022-11-24T01:19:02;11.00;;;4.88;;
22650;SDS011;11492;42.646;23.400;2022-11-24T01:21:28;12.90;;;5.00;;
22650;SDS011;11492;42.646;23.400;2022-11-24T01:23:53;13.20;;;4.60;;
22650;SDS011;11492;42.646;23.400;2022-11-24T01:26:20;15.45;;;4.32;;
22650;SDS011;11492;42.646;23.400;2022-11-24T01:28:46;12.70;;;4.53;;
22650;SDS011;11492;42.646;23.400;2022-11-24T01:31:16;11.13;;;4.60;;
22650;SDS011;11492;42.646;23.400;2022-11-24T01:33:41;9.73;;;3.95;;
22650;SDS011;11492;42.646;23.400;2022-11-24T01:36:06;11.88;;;4.15;;
22650;SDS011;11492;42.646;23.400;2022-11-24T01:38:32;10.18;;;4.15;;
22650;SDS011;11492;42.646;23.400;2022-11-24T01:43:37;8.45;;;3.95;;
22650;SDS011;11492;42.646;23.400;2022-11-24T01:46:49;11.98;;;4.68;;
22650;SDS011;11492;42.646;23.400;2022-11-24T01:49:22;12.20;;;3.85;;
22650;SDS011;11492;42.646;23.400;2022-11-24T01:54:30;9.07;;;4.22;;
22650;SDS011;11492;42.646;23.400;2022-11-24T01:57:01;8.30;;;4.07;;
22650;SDS011;11492;42.646;23.400;2022-11-24T01:59:34;13.40;;;4.00;;
22650;SDS011;11492;42.646;23.400;2022-11-24T02:01:59;8.98;;;3.90;;
22650;SDS011;11492;42.646;23.400;2022-11-24T02:04:28;9.70;;;3.90;;
22650;SDS011;11492;42.646;23.400;2022-11-24T02:06:58;8.55;;;3.83;;
22650;SDS011;11492;42.646;23.400;2022-11-24T02:09:30;8.75;;;3.63;;
22650;SDS011;11492;42.646;23.400;2022-11-24T02:12:01;8.25;;;4.07;;
22650;SDS011;11492;42.646;23.400;2022-11-24T02:14:28;10.38;;;3.75;;
22650;SDS011;11492;42.646;23.400;2022-11-24T02:16:53;12.00;;;4.28;;
22650;SDS011;11492;42.646;23.400;2022-11-24T02:22:07;12.52;;;4.40;;
22650;SDS011;11492;42.646;23.400;2022-11-24T02:24:55;7.70;;;3.95;;
22650;SDS011;11492;42.646;23.400;2022-11-24T02:27:43;9.52;;;3.83;;
22650;SDS011;11492;42.646;23.400;2022-11-24T02:30:09;9.27;;;3.83;;
22650;SDS011;11492;42.646;23.400;2022-11-24T02:32:35;9.50;;;4.22;;
22650;SDS011;11492;42.646;23.400;2022-11-24T02:35:04;9.02;;;4.25;;
22650;SDS011;11492;42.646;23.400;2022-11-24T02:37:30;10.10;;;4.00;;
22650;SDS011;11492;42.646;23.400;2022-11-24T02:39:56;12.27;;;4.53;;
22650;SDS011;11492;42.646;23.400;2022-11-24T02:42:21;10.95;;;4.03;;
22650;SDS011;11492;42.646;23.400;2022-11-24T02:44:48;6.70;;;4.00;;
22650;SDS011;11492;42.646;23.400;2022-11-24T02:47:18;9.45;;;4.10;;
22650;SDS011;11492;42.646;23.400;2022-11-24T02:49:44;9.75;;;3.85;;
22650;SDS011;11492;42.646;23.400;2022-11-24T02:52:09;8.07;;;3.65;;
22650;SDS011;11492;42.646;23.400;2022-11-24T02:54:34;7.07;;;3.63;;
22650;SDS011;11492;42.646;23.400;2022-11-24T02:57:00;10.10;;;3.70;;
22650;SDS011;11492;42.646;23.400;2022-11-24T02:59:25;11.80;;;4.53;;
22650;SDS011;11492;42.646;23.400;2022-11-24T03:01:51;8.50;;;3.42;;
22650;SDS011;11492;42.646;23.400;2022-11-24T03:04:16;9.55;;;3.58;;
22650;SDS011;11492;42.646;23.400;2022-11-24T03:06:42;8.85;;;3.20;;
22650;SDS011;11492;42.646;23.400;2022-11-24T03:09:08;12.73;;;3.95;;
22650;SDS011;11492;42.646;23.400;2022-11-24T03:11:34;8.02;;;3.67;;
22650;SDS011;11492;42.646;23.400;2022-11-24T03:14:00;7.00;;;3.67;;
22650;SDS011;11492;42.646;23.400;2022-11-24T03:16:25;11.80;;;3.97;;
22650;SDS011;11492;42.646;23.400;2022-11-24T03:18:50;6.70;;;3.25;;
22650;SDS011;11492;42.646;23.400;2022-11-24T03:21:17;7.90;;;3.60;;
22650;SDS011;11492;42.646;23.400;2022-11-24T03:23:42;10.32;;;3.70;;
22650;SDS011;11492;42.646;23.400;2022-11-24T03:26:15;5.50;;;3.40;;
22650;SDS011;11492;42.646;23.400;2022-11-24T03:28:42;8.45;;;3.33;;
22650;SDS011;11492;42.646;23.400;2022-11-24T03:31:07;11.02;;;4.72;;
22650;SDS011;11492;42.646;23.400;2022-11-24T03:33:33;11.20;;;3.90;;
22650;SDS011;11492;42.646;23.400;2022-11-24T03:35:59;8.63;;;3.55;;
22650;SDS011;11492;42.646;23.400;2022-11-24T03:38:25;11.05;;;3.90;;
22650;SDS011;11492;42.646;23.400;2022-11-24T03:40:50;9.30;;;4.05;;
22650;SDS011;11492;42.646;23.400;2022-11-24T03:43:16;9.30;;;4.13;;
22650;SDS011;11492;42.646;23.400;2022-11-24T03:45:45;11.90;;;4.28;;
22650;SDS011;11492;42.646;23.400;2022-11-24T03:48:11;7.95;;;3.78;;
22650;SDS011;11492;42.646;23.400;2022-11-24T03:50:37;9.93;;;4.15;;
22650;SDS011;11492;42.646;23.400;2022-11-24T03:53:02;7.20;;;4.07;;
22650;SDS011;11492;42.646;23.400;2022-11-24T03:55:28;7.55;;;3.22;;
22650;SDS011;11492;42.646;23.400;2022-11-24T03:57:53;11.80;;;3.63;;
22650;SDS011;11492;42.646;23.400;2022-11-24T04:00:19;7.07;;;3.38;;
22650;SDS011;11492;42.646;23.400;2022-11-24T04:02:44;7.72;;;3.20;;
22650;SDS011;11492;42.646;23.400;2022-11-24T04:05:10;8.05;;;3.13;;
22650;SDS011;11492;42.646;23.400;2022-11-24T04:07:35;6.85;;;3.70;;
22650;SDS011;11492;42.646;23.400;2022-11-24T04:10:01;5.95;;;3.30;;
22650;SDS011;11492;42.646;23.400;2022-11-24T04:12:27;14.50;;;3.63;;
22650;SDS011;11492;42.646;23.400;2022-11-24T04:15:11;6.03;;;3.40;;
22650;SDS011;11492;42.646;23.400;2022-11-24T04:17:38;11.05;;;3.70;;
22650;SDS011;11492;42.646;23.400;2022-11-24T04:20:04;11.50;;;4.70;;
22650;SDS011;11492;42.646;23.400;2022-11-24T04:22:30;11.98;;;3.60;;
22650;SDS011;11492;42.646;23.400;2022-11-24T04:24:56;5.53;;;3.45;;
22650;SDS011;11492;42.646;23.400;2022-11-24T04:27:21;8.40;;;4.10;;
22650;SDS011;11492;42.646;23.400;2022-11-24T04:29:46;8.18;;;4.10;;
22650;SDS011;11492;42.646;23.400;2022-11-24T04:32:12;8.82;;;4.00;;
22650;SDS011;11492;42.646;23.400;2022-11-24T04:34:41;11.32;;;5.10;;
22650;SDS011;11492;42.646;23.400;2022-11-24T04:37:07;17.02;;;5.47;;
22650;SDS011;11492;42.646;23.400;2022-11-24T04:39:32;11.55;;;5.65;;
22650;SDS011;11492;42.646;23.400;2022-11-24T04:41:58;17.60;;;6.03;;
22650;SDS011;11492;42.646;23.400;2022-11-24T04:44:23;20.92;;;5.97;;
22650;SDS011;11492;42.646;23.400;2022-11-24T04:46:49;10.93;;;4.78;;
22650;SDS011;11492;42.646;23.400;2022-11-24T04:49:14;13.27;;;5.07;;
22650;SDS011;11492;42.646;23.400;2022-11-24T04:51:39;9.68;;;4.10;;
22650;SDS011;11492;42.646;23.400;2022-11-24T04:54:06;9.10;;;4.18;;
22650;SDS011;11492;42.646;23.400;2022-11-24T04:56:33;8.35;;;4.05;;
22650;SDS011;11492;42.646;23.400;2022-11-24T04:58:59;6.60;;;3.70;;
22650;SDS011;11492;42.646;23.400;2022-11-24T05:01:25;12.30;;;4.00;;
22650;SDS011;11492;42.646;23.400;2022-11-24T05:03:54;9.00;;;3.67;;
22650;SDS011;11492;42.646;23.400;2022-11-24T05:06:20;9.30;;;3.92;;
22650;SDS011;11492;42.646;23.400;2022-11-24T05:08:46;12.38;;;3.83;;
22650;SDS011;11492;42.646;23.400;2022-11-24T05:11:12;13.48;;;4.45;;
22650;SDS011;11492;42.646;23.400;2022-11-24T05:13:38;12.02;;;3.67;;
22650;SDS011;11492;42.646;23.400;2022-11-24T05:16:03;12.13;;;4.30;;
22650;SDS011;11492;42.646;23.400;2022-11-24T05:18:29;7.82;;;3.97;;
22650;SDS011;11492;42.646;23.400;2022-11-24T05:20:56;21.20;;;4.55;;
22650;SDS011;11492;42.646;23.400;2022-11-24T05:23:22;16.17;;;4.30;;
22650;SDS011;11492;42.646;23.400;2022-11-24T05:25:47;15.27;;;4.93;;
22650;SDS011;11492;42.646;23.400;2022-11-24T05:28:13;14.23;;;4.90;;
22650;SDS011;11492;42.646;23.400;2022-11-24T05:30:39;25.13;;;4.15;;
22650;SDS011;11492;42.646;23.400;2022-11-24T05:33:05;8.18;;;4.07;;
22650;SDS011;11492;42.646;23.400;2022-11-24T05:35:33;24.02;;;4.38;;
22650;SDS011;11492;42.646;23.400;2022-11-24T05:37:59;11.32;;;4.40;;
22650;SDS011;11492;42.646;23.400;2022-11-24T05:40:24;13.07;;;3.78;;
22650;SDS011;11492;42.646;23.400;2022-11-24T05:42:50;8.00;;;4.07;;
22650;SDS011;11492;42.646;23.400;2022-11-24T05:45:16;17.73;;;4.03;;
22650;SDS011;11492;42.646;23.400;2022-11-24T05:47:43;14.98;;;3.88;;
22650;SDS011;11492;42.646;23.400;2022-11-24T05:50:10;10.48;;;4.07;;
22650;SDS011;11492;42.646;23.400;2022-11-24T05:52:37;9.93;;;3.38;;
22650;SDS011;11492;42.646;23.400;2022-11-24T05:55:03;14.45;;;3.70;;
22650;SDS011;11492;42.646;23.400;2022-11-24T05:57:29;13.45;;;4.05;;
22650;SDS011;11492;42.646;23.400;2022-11-24T05:59:55;11.30;;;4.20;;
22650;SDS011;11492;42.646;23.400;2022-11-24T06:02:20;14.40;;;4.13;;
22650;SDS011;11492;42.646;23.400;2022-11-24T06:04:46;8.13;;;3.97;;
22650;SDS011;11492;42.646;23.400;2022-11-24T06:07:11;9.65;;;3.50;;
22650;SDS011;11492;42.646;23.400;2022-11-24T06:09:38;11.43;;;4.28;;
22650;SDS011;11492;42.646;23.400;2022-11-24T06:12:08;19.27;;;4.22;;
22650;SDS011;11492;42.646;23.400;2022-11-24T06:14:35;11.20;;;4.32;;
22650;SDS011;11492;42.646;23.400;2022-11-24T06:17:01;11.65;;;4.50;;
22650;SDS011;11492;42.646;23.400;2022-11-24T06:19:27;15.23;;;4.13;;
22650;SDS011;11492;42.646;23.400;2022-11-24T06:21:52;16.33;;;3.88;;
22650;SDS011;11492;42.646;23.400;2022-11-24T06:24:18;13.85;;;4.45;;
22650;SDS011;11492;42.646;23.400;2022-11-24T06:26:43;7.75;;;3.80;;
22650;SDS011;11492;42.646;23.400;2022-11-24T06:29:08;11.90;;;4.20;;
22650;SDS011;11492;42.646;23.400;2022-11-24T06:31:34;12.82;;;4.03;;
22650;SDS011;11492;42.646;23.400;2022-11-24T06:33:59;17.38;;;4.43;;
22650;SDS011;11492;42.646;23.400;2022-11-24T06:36:25;13.60;;;4.28;;
22650;SDS011;11492;42.646;23.400;2022-11-24T06:38:51;9.90;;;4.25;;
22650;SDS011;11492;42.646;23.400;2022-11-24T06:41:17;17.20;;;4.28;;
22650;SDS011;11492;42.646;23.400;2022-11-24T06:43:43;16.15;;;4.80;;
22650;SDS011;11492;42.646;23.400;2022-11-24T06:46:09;19.33;;;5.13;;
22650;SDS011;11492;42.646;23.400;2022-11-24T06:48:35;24.02;;;6.47;;
22650;SDS011;11492;42.646;23.400;2022-11-24T06:51:02;24.13;;;6.45;;
22650;SDS011;11492;42.646;23.400;2022-11-24T06:53:36;27.15;;;7.45;;
22650;SDS011;11492;42.646;23.400;2022-11-24T06:56:03;27.23;;;8.35;;
22650;SDS011;11492;42.646;23.400;2022-11-24T06:58:30;23.92;;;8.02;;
22650;SDS011;11492;42.646;23.400;2022-11-24T07:00:55;35.55;;;9.57;;
22650;SDS011;11492;42.646;23.400;2022-11-24T07:03:21;25.98;;;9.00;;
22650;SDS011;11492;42.646;23.400;2022-11-24T07:05:46;25.60;;;8.70;;
22650;SDS011;11492;42.646;23.400;2022-11-24T07:08:12;37.10;;;10.18;;
22650;SDS011;11492;42.646;23.400;2022-11-24T07:10:38;28.63;;;10.57;;
22650;SDS011;11492;42.646;23.400;2022-11-24T07:13:05;31.50;;;11.80;;
22650;SDS011;11492;42.646;23.400;2022-11-24T07:15:31;37.00;;;13.70;;
22650;SDS011;11492;42.646;23.400;2022-11-24T07:17:57;42.83;;;16.95;;
22650;SDS011;11492;42.646;23.400;2022-11-24T07:20:23;49.17;;;18.20;;
22650;SDS011;11492;42.646;23.400;2022-11-24T07:22:48;49.28;;;18.35;;
22650;SDS011;11492;42.646;23.400;2022-11-24T07:25:13;43.97;;;15.15;;
22650;SDS011;11492;42.646;23.400;2022-11-24T07:27:41;33.20;;;14.85;;
22650;SDS011;11492;42.646;23.400;2022-11-24T07:30:07;38.03;;;15.25;;
22650;SDS011;11492;42.646;23.400;2022-11-24T07:32:32;36.17;;;15.13;;
22650;SDS011;11492;42.646;23.400;2022-11-24T07:34:58;36.15;;;15.48;;
22650;SDS011;11492;42.646;23.400;2022-11-24T07:37:24;30.58;;;14.00;;
22650;SDS011;11492;42.646;23.400;2022-11-24T07:39:49;34.47;;;14.82;;
22650;SDS011;11492;42.646;23.400;2022-11-24T07:42:14;32.83;;;14.55;;
22650;SDS011;11492;42.646;23.400;2022-11-24T07:44:40;34.05;;;14.27;;
22650;SDS011;11492;42.646;23.400;2022-11-24T07:47:05;39.45;;;15.57;;
22650;SDS011;11492;42.646;23.400;2022-11-24T07:49:31;34.05;;;14.40;;
22650;SDS011;11492;42.646;23.400;2022-11-24T07:51:56;34.60;;;15.00;;
22650;SDS011;11492;42.646;23.400;2022-11-24T07:54:21;31.02;;;12.98;;
22650;SDS011;11492;42.646;23.400;2022-11-24T07:56:47;28.60;;;12.20;;
22650;SDS011;11492;42.646;23.400;2022-11-24T07:59:13;26.23;;;11.20;;
22650;SDS011;11492;42.646;23.400;2022-11-24T08:01:39;24.33;;;11.02;;
22650;SDS011;11492;42.646;23.400;2022-11-24T08:04:04;20.15;;;10.50;;
22650;SDS011;11492;42.646;23.400;2022-11-24T08:06:30;24.27;;;11.35;;
22650;SDS011;11492;42.646;23.400;2022-11-24T08:08:56;18.88;;;10.35;;
22650;SDS011;11492;42.646;23.400;2022-11-24T08:11:21;19.95;;;10.32;;
22650;SDS011;11492;42.646;23.400;2022-11-24T08:13:47;21.10;;;10.65;;
22650;SDS011;11492;42.646;23.400;2022-11-24T08:16:13;26.73;;;11.32;;
22650;SDS011;11492;42.646;23.400;2022-11-24T08:18:41;17.52;;;10.52;;
22650;SDS011;11492;42.646;23.400;2022-11-24T08:21:07;21.30;;;10.90;;
22650;SDS011;11492;42.646;23.400;2022-11-24T08:23:37;16.70;;;10.68;;
22650;SDS011;11492;42.646;23.400;2022-11-24T08:26:06;18.20;;;11.27;;
22650;SDS011;11492;42.646;23.400;2022-11-24T08:28:35;20.80;;;10.50;;
22650;SDS011;11492;42.646;23.400;2022-11-24T08:31:06;25.55;;;9.18;;
22650;SDS011;11492;42.646;23.400;2022-11-24T08:33:36;14.43;;;9.55;;
22650;SDS011;11492;42.646;23.400;2022-11-24T08:36:07;18.23;;;9.50;;
22650;SDS011;11492;42.646;23.400;2022-11-24T08:38:34;18.00;;;10.02;;
22650;SDS011;11492;42.646;23.400;2022-11-24T08:41:03;18.77;;;9.50;;
22650;SDS011;11492;42.646;23.400;2022-11-24T08:43:34;19.95;;;9.25;;
22650;SDS011;11492;42.646;23.400;2022-11-24T08:46:00;17.65;;;9.45;;
22650;SDS011;11492;42.646;23.400;2022-11-24T08:48:27;21.27;;;9.57;;
22650;SDS011;11492;42.646;23.400;2022-11-24T08:50:53;20.42;;;10.18;;
22650;SDS011;11492;42.646;23.400;2022-11-24T08:53:18;13.88;;;9.02;;
22650;SDS011;11492;42.646;23.400;2022-11-24T08:55:44;18.80;;;9.05;;
22650;SDS011;11492;42.646;23.400;2022-11-24T08:58:09;16.75;;;8.68;;
22650;SDS011;11492;42.646;23.400;2022-11-24T09:00:35;15.57;;;8.55;;
22650;SDS011;11492;42.646;23.400;2022-11-24T09:03:00;17.92;;;8.60;;
22650;SDS011;11492;42.646;23.400;2022-11-24T09:05:25;13.10;;;7.90;;
22650;SDS011;11492;42.646;23.400;2022-11-24T09:07:51;13.70;;;6.97;;
22650;SDS011;11492;42.646;23.400;2022-11-24T09:10:17;11.90;;;6.97;;
22650;SDS011;11492;42.646;23.400;2022-11-24T09:12:43;8.02;;;5.30;;
22650;SDS011;11492;42.646;23.400;2022-11-24T09:15:10;8.82;;;5.45;;
22650;SDS011;11492;42.646;23.400;2022-11-24T09:17:36;8.75;;;5.10;;
22650;SDS011;11492;42.646;23.400;2022-11-24T09:20:02;9.05;;;4.05;;
22650;SDS011;11492;42.646;23.400;2022-11-24T09:22:29;8.50;;;4.32;;
22650;SDS011;11492;42.646;23.400;2022-11-24T09:24:55;8.60;;;4.43;;
22650;SDS011;11492;42.646;23.400;2022-11-24T09:27:20;9.45;;;4.82;;
22650;SDS011;11492;42.646;23.400;2022-11-24T09:29:46;6.65;;;3.83;;
22650;SDS011;11492;42.646;23.400;2022-11-24T09:32:11;5.93;;;3.60;;
22650;SDS011;11492;42.646;23.400;2022-11-24T09:34:36;6.35;;;2.83;;
22650;SDS011;11492;42.646;23.400;2022-11-24T09:37:02;5.97;;;3.42;;
22650;SDS011;11492;42.646;23.400;2022-11-24T09:39:28;5.38;;;3.08;;
22650;SDS011;11492;42.646;23.400;2022-11-24T09:55:19;4.70;;;2.53;;
22650;SDS011;11492;42.646;23.400;2022-11-24T09:58:02;5.25;;;2.22;;
22650;SDS011;11492;42.646;23.400;2022-11-24T10:00:35;4.80;;;1.73;;
22650;SDS011;11492;42.646;23.400;2022-11-24T10:03:01;5.65;;;1.90;;
22650;SDS011;11492;42.646;23.400;2022-11-24T10:05:28;2.33;;;1.60;;
22650;SDS011;11492;42.646;23.400;2022-11-24T10:08:08;5.82;;;1.90;;
22650;SDS011;11492;42.646;23.400;2022-11-24T10:11:03;7.78;;;1.88;;
22650;SDS011;11492;42.646;23.400;2022-11-24T10:16:11;4.97;;;1.60;;
22650;SDS011;11492;42.646;23.400;2022-11-24T10:18:44;8.90;;;3.35;;
22650;SDS011;11492;42.646;23.400;2022-11-24T10:22:08;2.80;;;2.08;;
22650;SDS011;11492;42.646;23.400;2022-11-24T10:27:09;4.57;;;1.90;;
22650;SDS011;11492;42.646;23.400;2022-11-24T10:29:41;2.85;;;2.22;;
22650;SDS011;11492;42.646;23.400;2022-11-24T10:32:17;2.40;;;1.83;;
22650;SDS011;11492;42.646;23.400;2022-11-24T10:34:46;3.30;;;2.00;;
22650;SDS011;11492;42.646;23.400;2022-11-24T10:40:09;3.35;;;2.30;;
22650;SDS011;11492;42.646;23.400;2022-11-24T10:42:42;5.15;;;2.75;;
22650;SDS011;11492;42.646;23.400;2022-11-24T10:45:12;4.55;;;2.58;;
22650;SDS011;11492;42.646;23.400;2022-11-24T10:47:39;11.65;;;2.75;;
22650;SDS011;11492;42.646;23.400;2022-11-24T10:58:21;4.32;;;2.50;;
22650;SDS011;11492;42.646;23.400;2022-11-24T11:00:50;4.20;;;2.63;;
22650;SDS011;11492;42.646;23.400;2022-11-24T11:03:20;5.15;;;2.88;;
22650;SDS011;11492;42.646;23.400;2022-11-24T11:05:51;5.90;;;2.90;;
22650;SDS011;11492;42.646;23.400;2022-11-24T11:08:20;5.03;;;3.20;;
22650;SDS011;11492;42.646;23.400;2022-11-24T11:10:50;5.60;;;3.40;;
22650;SDS011;11492;42.646;23.400;2022-11-24T11:13:37;3.70;;;2.85;;
22650;SDS011;11492;42.646;23.400;2022-11-24T11:22:20;4.97;;;3.33;;
22650;SDS011;11492;42.646;23.400;2022-11-24T11:25:01;4.90;;;3.60;;
22650;SDS011;11492;42.646;23.400;2022-11-24T11:27:29;6.82;;;3.78;;
22650;SDS011;11492;42.646;23.400;2022-11-24T11:30:02;8.88;;;3.70;;
22650;SDS011;11492;42.646;23.400;2022-11-24T11:35:19;10.55;;;4.50;;
22650;SDS011;11492;42.646;23.400;2022-11-24T11:37:46;7.90;;;4.25;;
22650;SDS011;11492;42.646;23.400;2022-11-24T11:40:21;6.82;;;4.30;;
22650;SDS011;11492;42.646;23.400;2022-11-24T11:42:51;7.95;;;3.85;;
22650;SDS011;11492;42.646;23.400;2022-11-24T11:45:40;10.50;;;4.13;;
22650;SDS011;11492;42.646;23.400;2022-11-24T11:51:04;10.75;;;4.63;;
22650;SDS011;11492;42.646;23.400;2022-11-24T11:56:41;10.25;;;4.38;;
22650;SDS011;11492;42.646;23.400;2022-11-24T12:18:08;8.90;;;5.03;;
22650;SDS011;11492;42.646;23.400;2022-11-24T12:31:40;5.97;;;3.78;;
22650;SDS011;11492;42.646;23.400;2022-11-24T12:37:21;8.55;;;4.35;;
22650;SDS011;11492;42.646;23.400;2022-11-24T12:40:10;9.80;;;4.03;;
22650;SDS011;11492;42.646;23.400;2022-11-24T12:50:38;6.33;;;4.20;;
22650;SDS011;11492;42.646;23.400;2022-11-24T12:53:11;5.72;;;3.70;;
22650;SDS011;11492;42.646;23.400;2022-11-24T12:55:41;9.48;;;4.90;;
22650;SDS011;11492;42.646;23.400;2022-11-24T13:08:52;6.55;;;4.40;;
22650;SDS011;11492;42.646;23.400;2022-11-24T13:13:57;5.22;;;3.38;;
22650;SDS011;11492;42.646;23.400;2022-11-24T13:16:31;5.97;;;3.85;;
22650;SDS011;11492;42.646;23.400;2022-11-24T13:18:57;5.60;;;3.70;;
22650;SDS011;11492;42.646;23.400;2022-11-24T13:27:25;3.67;;;2.72;;
22650;SDS011;11492;42.646;23.400;2022-11-24T13:29:37;9.35;;;3.17;;
22650;SDS011;11492;42.646;23.400;2022-11-24T13:37:17;4.47;;;2.67;;
22650;SDS011;11492;42.646;23.400;2022-11-24T13:39:47;5.60;;;3.45;;
22650;SDS011;11492;42.646;23.400;2022-11-24T13:42:20;5.07;;;3.20;;
22650;SDS011;11492;42.646;23.400;2022-11-24T13:50:14;6.28;;;3.35;;
22650;SDS011;11492;42.646;23.400;2022-11-24T13:52:50;6.35;;;3.10;;
22650;SDS011;11492;42.646;23.400;2022-11-24T13:55:32;7.05;;;3.20;;
22650;SDS011;11492;42.646;23.400;2022-11-24T13:58:02;8.02;;;3.55;;
22650;SDS011;11492;42.646;23.400;2022-11-24T14:03:42;5.20;;;3.20;;
22650;SDS011;11492;42.646;23.400;2022-11-24T14:06:15;6.18;;;3.13;;
22650;SDS011;11492;42.646;23.400;2022-11-24T14:08:44;4.35;;;3.17;;
22650;SDS011;11492;42.646;23.400;2022-11-24T14:11:12;5.07;;;3.42;;
22650;SDS011;11492;42.646;23.400;2022-11-24T14:13:41;7.50;;;3.33;;
22650;SDS011;11492;42.646;23.400;2022-11-24T14:16:16;6.60;;;3.50;;
22650;SDS011;11492;42.646;23.400;2022-11-24T14:18:46;5.95;;;3.22;;
22650;SDS011;11492;42.646;23.400;2022-11-24T14:21:21;8.20;;;3.30;;
22650;SDS011;11492;42.646;23.400;2022-11-24T14:29:19;6.82;;;3.22;;
22650;SDS011;11492;42.646;23.400;2022-11-24T14:32:12;5.53;;;3.42;;
22650;SDS011;11492;42.646;23.400;2022-11-24T14:37:07;5.32;;;3.53;;
22650;SDS011;11492;42.646;23.400;2022-11-24T14:39:38;5.30;;;3.38;;
22650;SDS011;11492;42.646;23.400;2022-11-24T14:50:04;11.70;;;2.78;;
22650;SDS011;11492;42.646;23.400;2022-11-24T14:52:44;4.78;;;3.45;;
22650;SDS011;11492;42.646;23.400;2022-11-24T14:55:29;11.10;;;3.40;;
22650;SDS011;11492;42.646;23.400;2022-11-24T14:57:56;5.68;;;3.00;;
22650;SDS011;11492;42.646;23.400;2022-11-24T15:00:28;7.35;;;2.80;;
22650;SDS011;11492;42.646;23.400;2022-11-24T15:05:24;9.15;;;2.80;;
22650;SDS011;11492;42.646;23.400;2022-11-24T15:07:50;5.82;;;2.78;;
22650;SDS011;11492;42.646;23.400;2022-11-24T15:10:30;3.15;;;2.63;;
22650;SDS011;11492;42.646;23.400;2022-11-24T15:12:59;3.58;;;2.67;;
22650;SDS011;11492;42.646;23.400;2022-11-24T15:15:36;8.43;;;3.10;;
22650;SDS011;11492;42.646;23.400;2022-11-24T15:18:03;3.53;;;2.65;;
22650;SDS011;11492;42.646;23.400;2022-11-24T15:20:43;3.97;;;2.65;;
22650;SDS011;11492;42.646;23.400;2022-11-24T15:23:28;5.13;;;3.20;;
22650;SDS011;11492;42.646;23.400;2022-11-24T15:25:55;4.85;;;3.22;;
22650;SDS011;11492;42.646;23.400;2022-11-24T15:28:41;6.38;;;3.50;;
22650;SDS011;11492;42.646;23.400;2022-11-24T15:31:10;6.30;;;4.00;;
22650;SDS011;11492;42.646;23.400;2022-11-24T15:33:37;9.00;;;3.92;;
22650;SDS011;11492;42.646;23.400;2022-11-24T15:36:03;7.70;;;4.00;;
22650;SDS011;11492;42.646;23.400;2022-11-24T15:38:29;8.05;;;4.18;;
22650;SDS011;11492;42.646;23.400;2022-11-24T15:40:56;7.93;;;4.05;;
22650;SDS011;11492;42.646;23.400;2022-11-24T15:43:36;6.97;;;4.35;;
22650;SDS011;11492;42.646;23.400;2022-11-24T15:46:04;5.88;;;4.03;;
22650;SDS011;11492;42.646;23.400;2022-11-24T15:48:31;7.82;;;4.05;;
22650;SDS011;11492;42.646;23.400;2022-11-24T15:50:57;7.38;;;4.03;;
22650;SDS011;11492;42.646;23.400;2022-11-24T15:55:56;10.15;;;3.75;;
22650;SDS011;11492;42.646;23.400;2022-11-24T15:58:23;7.22;;;3.67;;
22650;SDS011;11492;42.646;23.400;2022-11-24T16:00:48;7.18;;;4.13;;
22650;SDS011;11492;42.646;23.400;2022-11-24T16:03:17;7.13;;;3.90;;
22650;SDS011;11492;42.646;23.400;2022-11-24T16:05:43;10.95;;;4.00;;
22650;SDS011;11492;42.646;23.400;2022-11-24T16:08:12;5.90;;;3.72;;
22650;SDS011;11492;42.646;23.400;2022-11-24T16:10:39;6.32;;;3.42;;
22650;SDS011;11492;42.646;23.400;2022-11-24T16:13:06;8.73;;;3.33;;
22650;SDS011;11492;42.646;23.400;2022-11-24T16:15:33;5.57;;;3.40;;
22650;SDS011;11492;42.646;23.400;2022-11-24T16:17:58;5.95;;;3.60;;
22650;SDS011;11492;42.646;23.400;2022-11-24T16:20:24;8.48;;;4.18;;
22650;SDS011;11492;42.646;23.400;2022-11-24T16:22:49;7.00;;;3.47;;
22650;SDS011;11492;42.646;23.400;2022-11-24T16:25:15;6.07;;;3.00;;
22650;SDS011;11492;42.646;23.400;2022-11-24T16:27:41;6.82;;;3.83;;
22650;SDS011;11492;42.646;23.400;2022-11-24T16:30:06;8.23;;;4.03;;
22650;SDS011;11492;42.646;23.400;2022-11-24T16:32:34;6.40;;;3.55;;
22650;SDS011;11492;42.646;23.400;2022-11-24T16:35:00;5.82;;;3.50;;
22650;SDS011;11492;42.646;23.400;2022-11-24T16:37:25;4.97;;;3.80;;
22650;SDS011;11492;42.646;23.400;2022-11-24T16:39:50;5.97;;;3.75;;
22650;SDS011;11492;42.646;23.400;2022-11-24T16:42:16;6.72;;;3.70;;
22650;SDS011;11492;42.646;23.400;2022-11-24T16:44:41;8.18;;;4.03;;
22650;SDS011;11492;42.646;23.400;2022-11-24T16:47:07;6.78;;;3.97;;
22650;SDS011;11492;42.646;23.400;2022-11-24T16:49:32;7.97;;;4.30;;
22650;SDS011;11492;42.646;23.400;2022-11-24T16:51:58;6.20;;;4.05;;
22650;SDS011;11492;42.646;23.400;2022-11-24T16:54:24;8.85;;;3.80;;
22650;SDS011;11492;42.646;23.400;2022-11-24T16:56:49;5.72;;;3.83;;
22650;SDS011;11492;42.646;23.400;2022-11-24T16:59:15;7.53;;;4.35;;